createdAt,value
2018-01-02T00:00:24.933Z,995.38
2018-01-02T00:01:33.548Z,995.45
2018-01-02T00:02:42.150Z,995.45
2018-01-02T00:03:50.996Z,995.44
2018-01-02T00:04:59.604Z,995.51
2018-01-02T00:06:08.212Z,995.51
2018-01-02T00:07:16.809Z,995.53
2018-01-02T00:08:25.413Z,995.54
2018-01-02T00:09:34.070Z,995.58
2018-01-02T00:10:42.619Z,995.53
2018-01-02T00:11:51.474Z,995.56
2018-01-02T00:13:00.086Z,995.6
2018-01-02T00:14:08.681Z,995.66
2018-01-02T00:15:17.273Z,995.72
2018-01-02T00:16:25.885Z,995.66
2018-01-02T00:17:34.484Z,995.74
2018-01-02T00:18:43.077Z,995.7
2018-01-02T00:19:51.689Z,995.69
2018-01-02T00:21:00.295Z,995.75
2018-01-02T00:22:08.885Z,995.81
2018-01-02T00:23:17.492Z,995.81
2018-01-02T00:24:26.089Z,995.8
2018-01-02T00:25:34.698Z,995.81
2018-01-02T00:26:43.300Z,995.89
2018-01-02T00:27:51.886Z,995.92
2018-01-02T00:29:00.500Z,995.99
2018-01-02T00:30:09.104Z,996.01
2018-01-02T00:31:17.698Z,996.05
2018-01-02T00:32:26.305Z,996.1
2018-01-02T00:33:34.913Z,996.12
2018-01-02T00:34:43.509Z,996.06
2018-01-02T00:35:52.373Z,996.12
2018-01-02T00:37:00.986Z,996.06
2018-01-02T00:38:09.580Z,996.11
2018-01-02T00:39:18.206Z,996.14
2018-01-02T00:40:26.772Z,996.21
2018-01-02T00:41:35.380Z,996.22
2018-01-02T00:42:43.991Z,996.27
2018-01-02T00:43:52.579Z,996.31
2018-01-02T00:45:01.186Z,996.28
2018-01-02T00:46:10.056Z,996.32
2018-01-02T00:47:18.648Z,996.36
2018-01-02T00:48:27.248Z,996.33
2018-01-02T00:49:35.859Z,996.35
2018-01-02T00:50:44.452Z,996.41
2018-01-02T00:51:53.043Z,996.37
2018-01-02T00:53:01.649Z,996.39
2018-01-02T00:54:10.252Z,996.4
2018-01-02T00:55:18.859Z,996.43
2018-01-02T00:56:27.452Z,996.44
2018-01-02T00:57:36.050Z,996.44
2018-01-02T00:58:44.924Z,996.5
2018-01-02T00:59:53.776Z,996.5
2018-01-02T01:01:02.372Z,996.54
2018-01-02T01:02:10.982Z,996.53
2018-01-02T01:03:19.583Z,996.59
2018-01-02T01:04:28.175Z,996.6
2018-01-02T01:05:36.793Z,996.63
2018-01-02T01:06:45.655Z,996.6
2018-01-02T01:07:54.242Z,996.66
2018-01-02T01:09:02.847Z,996.7
2018-01-02T01:10:11.453Z,996.66
2018-01-02T01:11:20.044Z,996.72
2018-01-02T01:12:28.653Z,996.69
2018-01-02T01:13:37.267Z,996.74
2018-01-02T01:14:45.858Z,996.76
2018-01-02T01:15:54.458Z,996.8
2018-01-02T01:17:03.067Z,996.83
2018-01-02T01:18:11.662Z,996.82
2018-01-02T01:19:20.262Z,996.85
2018-01-02T01:20:28.866Z,996.88
2018-01-02T01:21:37.465Z,996.93
2018-01-02T01:22:46.070Z,996.93
2018-01-02T01:23:54.662Z,996.97
2018-01-02T01:25:03.263Z,997.01
2018-01-02T01:26:11.874Z,997.08
2018-01-02T01:27:20.466Z,997.06
2018-01-02T01:28:29.057Z,997.12
2018-01-02T01:29:37.670Z,997.08
2018-01-02T01:30:46.271Z,997.06
2018-01-02T01:31:54.865Z,997.15
2018-01-02T01:33:03.471Z,997.12
2018-01-02T01:34:12.075Z,997.18
2018-01-02T01:35:20.664Z,997.16
2018-01-02T01:36:29.274Z,997.24
2018-01-02T01:37:37.869Z,997.23
2018-01-02T01:38:46.481Z,997.26
2018-01-02T01:39:55.082Z,997.33
2018-01-02T01:41:03.668Z,997.32
2018-01-02T01:42:12.280Z,997.36
2018-01-02T01:43:20.883Z,997.38
2018-01-02T01:44:29.475Z,997.4
2018-01-02T01:45:38.079Z,997.38
2018-01-02T01:46:46.686Z,997.45
2018-01-02T01:47:55.284Z,997.47
2018-01-02T01:49:03.891Z,997.48
2018-01-02T01:50:12.771Z,997.5
2018-01-02T01:51:21.626Z,997.53
2018-01-02T01:52:30.229Z,997.53
2018-01-02T01:53:38.821Z,997.57
2018-01-02T01:54:47.427Z,997.6
2018-01-02T01:55:56.033Z,997.63
2018-01-02T01:57:04.618Z,997.66
2018-01-02T01:58:13.220Z,997.72
2018-01-02T01:59:21.833Z,997.72
2018-01-02T02:00:30.426Z,997.75
2018-01-02T02:01:39.028Z,997.76
2018-01-02T02:02:47.641Z,997.78
2018-01-02T02:03:56.237Z,997.78
2018-01-02T02:05:04.839Z,997.83
2018-01-02T02:06:13.442Z,997.8
2018-01-02T02:07:22.043Z,997.82
2018-01-02T02:08:30.630Z,997.77
2018-01-02T02:09:39.499Z,997.78
2018-01-02T02:10:48.105Z,997.8
2018-01-02T02:11:56.693Z,997.79
2018-01-02T02:13:05.299Z,997.83
2018-01-02T02:14:13.906Z,997.87
2018-01-02T02:15:22.497Z,997.85
2018-01-02T02:16:31.101Z,997.85
2018-01-02T02:17:39.714Z,997.91
2018-01-02T02:18:48.563Z,997.84
2018-01-02T02:19:57.167Z,997.85
2018-01-02T02:21:05.762Z,997.88
2018-01-02T02:22:14.371Z,997.88
2018-01-02T02:23:22.974Z,997.92
2018-01-02T02:24:31.566Z,997.88
2018-01-02T02:25:40.166Z,997.83
2018-01-02T02:26:48.781Z,997.86
2018-01-02T02:27:57.368Z,997.9
2018-01-02T02:29:05.968Z,997.89
2018-01-02T02:30:14.578Z,997.85
2018-01-02T02:31:23.175Z,997.86
2018-01-02T02:32:31.767Z,997.89
2018-01-02T02:33:40.381Z,997.87
2018-01-02T02:34:48.987Z,997.91
2018-01-02T02:35:57.590Z,997.91
2018-01-02T02:37:06.182Z,997.93
2018-01-02T02:38:14.782Z,997.92
2018-01-02T02:39:23.401Z,997.93
2018-01-02T02:40:31.986Z,997.96
2018-01-02T02:41:40.579Z,997.95
2018-01-02T02:42:49.193Z,997.96
2018-01-02T02:43:57.792Z,997.98
2018-01-02T02:45:06.380Z,997.97
2018-01-02T02:46:15.251Z,998.03
2018-01-02T02:47:23.858Z,998.03
2018-01-02T02:48:32.443Z,998.1
2018-01-02T02:49:41.054Z,998.08
2018-01-02T02:50:49.650Z,998.08
2018-01-02T02:51:58.258Z,998.12
2018-01-02T02:53:07.121Z,998.13
2018-01-02T02:54:15.708Z,998.14
2018-01-02T02:55:24.322Z,998.13
2018-01-02T02:56:32.925Z,998.17
2018-01-02T02:57:41.517Z,998.16
2018-01-02T02:58:50.129Z,998.18
2018-01-02T02:59:58.734Z,998.19
2018-01-02T03:01:07.324Z,998.22
2018-01-02T03:02:15.925Z,998.21
2018-01-02T03:03:24.543Z,998.22
2018-01-02T03:04:33.137Z,998.25
2018-01-02T03:05:41.740Z,998.19
2018-01-02T03:06:50.329Z,998.24
2018-01-02T03:07:58.933Z,998.22
2018-01-02T03:09:07.537Z,998.27
2018-01-02T03:10:16.129Z,998.28
2018-01-02T03:11:24.728Z,998.26
2018-01-02T03:12:33.342Z,998.3
2018-01-02T03:13:41.932Z,998.31
2018-01-02T03:14:50.530Z,998.36
2018-01-02T03:15:59.142Z,998.34
2018-01-02T03:17:07.737Z,998.34
2018-01-02T03:18:16.593Z,998.41
2018-01-02T03:19:25.453Z,998.39
2018-01-02T03:20:34.053Z,998.42
2018-01-02T03:21:42.666Z,998.47
2018-01-02T03:22:51.257Z,998.48
2018-01-02T03:23:59.856Z,998.48
2018-01-02T03:25:08.467Z,998.5
2018-01-02T03:26:17.060Z,998.52
2018-01-02T03:27:25.652Z,998.52
2018-01-02T03:28:34.265Z,998.58
2018-01-02T03:29:42.866Z,998.54
2018-01-02T03:30:51.456Z,998.55
2018-01-02T03:32:00.066Z,998.54
2018-01-02T03:33:08.924Z,998.52
2018-01-02T03:34:17.530Z,998.57
2018-01-02T03:35:26.123Z,998.55
2018-01-02T03:36:34.969Z,998.59
2018-01-02T03:37:43.581Z,998.61
2018-01-02T03:38:52.177Z,998.64
2018-01-02T03:40:00.769Z,998.67
2018-01-02T03:41:09.381Z,998.69
2018-01-02T03:42:18.246Z,998.72
2018-01-02T03:43:26.833Z,998.71
2018-01-02T03:44:35.441Z,998.75
2018-01-02T03:45:44.048Z,998.72
2018-01-02T03:46:52.642Z,998.74
2018-01-02T03:48:01.239Z,998.77
2018-01-02T03:49:09.832Z,998.76
2018-01-02T03:50:18.445Z,998.73
2018-01-02T03:51:27.049Z,998.73
2018-01-02T03:52:35.637Z,998.77
2018-01-02T03:53:44.244Z,998.77
2018-01-02T03:54:52.855Z,998.85
2018-01-02T03:56:01.702Z,998.84
2018-01-02T03:57:10.306Z,998.87
2018-01-02T03:58:18.920Z,998.89
2018-01-02T03:59:27.508Z,998.92
2018-01-02T04:00:36.106Z,998.93
2018-01-02T04:01:44.718Z,998.98
2018-01-02T04:02:53.310Z,999
2018-01-02T04:04:01.908Z,998.97
2018-01-02T04:05:10.521Z,999.04
2018-01-02T04:06:19.125Z,999.01
2018-01-02T04:07:27.709Z,999.04
2018-01-02T04:08:36.317Z,998.99
2018-01-02T04:09:44.919Z,999.02
2018-01-02T04:10:53.507Z,999.04
2018-01-02T04:12:02.116Z,999.05
2018-01-02T04:13:10.722Z,999.12
2018-01-02T04:14:19.311Z,999.07
2018-01-02T04:15:27.917Z,999.1
2018-01-02T04:16:36.522Z,999.11
2018-01-02T04:17:45.118Z,999.11
2018-01-02T04:18:53.722Z,999.17
2018-01-02T04:20:02.565Z,999.16
2018-01-02T04:21:11.171Z,999.17
2018-01-02T04:22:19.774Z,999.19
2018-01-02T04:23:28.364Z,999.23
2018-01-02T04:24:36.965Z,999.24
2018-01-02T04:25:45.577Z,999.22
2018-01-02T04:26:54.167Z,999.25
2018-01-02T04:28:02.764Z,999.24
2018-01-02T04:29:11.375Z,999.21
2018-01-02T04:30:19.970Z,999.23
2018-01-02T04:31:28.571Z,999.22
2018-01-02T04:32:37.168Z,999.25
2018-01-02T04:33:45.769Z,999.24
2018-01-02T04:34:54.381Z,999.25
2018-01-02T04:36:02.972Z,999.21
2018-01-02T04:37:11.577Z,999.27
2018-01-02T04:38:20.181Z,999.27
2018-01-02T04:39:28.776Z,999.3
2018-01-02T04:40:37.365Z,999.31
2018-01-02T04:41:46.245Z,999.35
2018-01-02T04:42:54.842Z,999.36
2018-01-02T04:44:03.431Z,999.43
2018-01-02T04:45:12.041Z,999.42
2018-01-02T04:46:20.645Z,999.43
2018-01-02T04:47:29.246Z,999.46
2018-01-02T04:48:37.843Z,999.47
2018-01-02T04:49:46.439Z,999.52
2018-01-02T04:50:55.055Z,999.55
2018-01-02T04:52:03.917Z,999.59
2018-01-02T04:53:12.508Z,999.59
2018-01-02T04:54:21.117Z,999.64
2018-01-02T04:55:29.720Z,999.65
2018-01-02T04:56:38.310Z,999.65
2018-01-02T04:57:46.928Z,999.71
2018-01-02T04:58:55.530Z,999.65
2018-01-02T05:00:04.124Z,999.73
2018-01-02T05:01:12.984Z,999.74
2018-01-02T05:02:21.834Z,999.77
2018-01-02T05:03:30.446Z,999.77
2018-01-02T05:04:39.051Z,999.8
2018-01-02T05:05:47.642Z,999.82
2018-01-02T05:06:56.252Z,999.81
2018-01-02T05:08:04.858Z,999.83
2018-01-02T05:09:13.452Z,999.85
2018-01-02T05:10:22.314Z,999.88
2018-01-02T05:11:30.947Z,999.9
2018-01-02T05:12:39.517Z,999.94
2018-01-02T05:13:48.121Z,999.91
2018-01-02T05:14:56.734Z,999.98
2018-01-02T05:16:05.325Z,1000.02
2018-01-02T05:17:13.936Z,1000.06
2018-01-02T05:18:22.525Z,1000.08
2018-01-02T05:19:31.128Z,1000.12
2018-01-02T05:20:39.741Z,1000.13
2018-01-02T05:21:48.334Z,1000.14
2018-01-02T05:22:56.940Z,1000.17
2018-01-02T05:24:05.541Z,1000.2
2018-01-02T05:25:14.137Z,1000.22
2018-01-02T05:26:22.732Z,1000.24
2018-01-02T05:27:31.344Z,1000.25
2018-01-02T05:28:39.944Z,1000.31
2018-01-02T05:29:48.536Z,1000.29
2018-01-02T05:30:57.140Z,1000.3
2018-01-02T05:32:05.739Z,1000.3
2018-01-02T05:33:14.354Z,1000.3
2018-01-02T05:34:22.946Z,1000.36
2018-01-02T05:35:31.542Z,1000.37
2018-01-02T05:36:40.153Z,1000.39
2018-01-02T05:37:48.752Z,1000.42
2018-01-02T05:38:57.345Z,1000.4
2018-01-02T05:40:05.957Z,1000.43
2018-01-02T05:41:14.558Z,1000.41
2018-01-02T05:42:23.148Z,1000.45
2018-01-02T05:43:31.758Z,1000.46
2018-01-02T05:44:40.626Z,1000.49
2018-01-02T05:45:49.231Z,1000.48
2018-01-02T05:46:57.832Z,1000.48
2018-01-02T05:48:06.420Z,1000.54
2018-01-02T05:49:15.032Z,1000.56
2018-01-02T05:50:23.640Z,1000.53
2018-01-02T05:51:32.234Z,1000.54
2018-01-02T05:52:40.839Z,1000.59
2018-01-02T05:53:49.447Z,1000.56
2018-01-02T05:54:58.040Z,1000.59
2018-01-02T05:56:07.158Z,1000.67
2018-01-02T05:57:15.768Z,1000.67
2018-01-02T05:58:24.361Z,1000.67
2018-01-02T05:59:32.959Z,1000.74
2018-01-02T06:00:41.571Z,1000.75
2018-01-02T06:01:50.168Z,1000.75
2018-01-02T06:02:58.762Z,1000.81
2018-01-02T06:04:07.377Z,1000.86
2018-01-02T06:05:15.978Z,1000.89
2018-01-02T06:06:24.574Z,1000.92
2018-01-02T06:07:33.185Z,1000.96
2018-01-02T06:08:41.795Z,1000.93
2018-01-02T06:09:50.382Z,1000.99
2018-01-02T06:10:58.990Z,1000.97
2018-01-02T06:12:07.606Z,1001
2018-01-02T06:13:16.190Z,1001.06
2018-01-02T06:14:24.793Z,1001.05
2018-01-02T06:15:33.386Z,1001.1
2018-01-02T06:16:42.003Z,1001.11
2018-01-02T06:17:50.606Z,1001.15
2018-01-02T06:18:59.192Z,1001.15
2018-01-02T06:20:07.802Z,1001.19
2018-01-02T06:21:16.409Z,1001.15
2018-01-02T06:22:24.999Z,1001.18
2018-01-02T06:23:33.862Z,1001.24
2018-01-02T06:24:42.522Z,1001.27
2018-01-02T06:25:51.066Z,1001.27
2018-01-02T06:26:59.663Z,1001.24
2018-01-02T06:28:08.279Z,1001.32
2018-01-02T06:29:17.133Z,1001.35
2018-01-02T06:30:25.743Z,1001.37
2018-01-02T06:31:34.331Z,1001.38
2018-01-02T06:32:42.936Z,1001.39
2018-01-02T06:33:51.547Z,1001.41
2018-01-02T06:35:00.143Z,1001.42
2018-01-02T06:36:08.740Z,1001.42
2018-01-02T06:37:17.355Z,1001.43
2018-01-02T06:38:25.950Z,1001.47
2018-01-02T06:39:35.058Z,1001.45
2018-01-02T06:40:43.668Z,1001.49
2018-01-02T06:41:52.268Z,1001.46
2018-01-02T06:43:00.859Z,1001.5
2018-01-02T06:44:09.469Z,1001.5
2018-01-02T06:45:18.071Z,1001.55
2018-01-02T06:46:26.686Z,1001.55
2018-01-02T06:47:35.277Z,1001.56
2018-01-02T06:48:43.884Z,1001.58
2018-01-02T06:49:52.482Z,1001.55
2018-01-02T06:51:01.084Z,1001.58
2018-01-02T06:52:09.672Z,1001.61
2018-01-02T06:53:18.285Z,1001.61
2018-01-02T06:54:26.892Z,1001.59
2018-01-02T06:55:35.494Z,1001.63
2018-01-02T06:56:44.349Z,1001.67
2018-01-02T06:57:52.959Z,1001.67
2018-01-02T06:59:01.566Z,1001.67
2018-01-02T07:00:10.161Z,1001.72
2018-01-02T07:01:18.752Z,1001.74
2018-01-02T07:02:27.376Z,1001.73
2018-01-02T07:03:35.974Z,1001.77
2018-01-02T07:04:44.816Z,1001.78
2018-01-02T07:05:53.428Z,1001.83
2018-01-02T07:07:02.033Z,1001.84
2018-01-02T07:08:10.647Z,1001.87
2018-01-02T07:09:19.229Z,1001.88
2018-01-02T07:10:27.842Z,1001.87
2018-01-02T07:11:36.687Z,1001.9
2018-01-02T07:12:45.283Z,1001.96
2018-01-02T07:13:53.885Z,1001.93
2018-01-02T07:15:02.493Z,1001.98
2018-01-02T07:16:11.103Z,1002.02
2018-01-02T07:17:19.688Z,1002.03
2018-01-02T07:18:28.288Z,1002.06
2018-01-02T07:19:36.902Z,1002.08
2018-01-02T07:20:45.493Z,1002.12
2018-01-02T07:21:54.093Z,1002.11
2018-01-02T07:23:02.703Z,1002.15
2018-01-02T07:24:11.297Z,1002.13
2018-01-02T07:25:19.890Z,1002.16
2018-01-02T07:26:28.504Z,1002.15
2018-01-02T07:27:37.107Z,1002.15
2018-01-02T07:28:45.716Z,1002.12
2018-01-02T07:29:54.572Z,1002.15
2018-01-02T07:31:03.429Z,1002.19
2018-01-02T07:32:12.044Z,1002.23
2018-01-02T07:33:20.642Z,1002.26
2018-01-02T07:34:29.234Z,1002.27
2018-01-02T07:35:37.846Z,1002.27
2018-01-02T07:36:46.705Z,1002.25
2018-01-02T07:37:55.298Z,1002.29
2018-01-02T07:39:03.909Z,1002.3
2018-01-02T07:40:12.515Z,1002.32
2018-01-02T07:41:21.128Z,1002.32
2018-01-02T07:42:29.715Z,1002.33
2018-01-02T07:43:38.314Z,1002.32
2018-01-02T07:44:46.927Z,1002.37
2018-01-02T07:45:55.529Z,1002.39
2018-01-02T07:47:04.119Z,1002.45
2018-01-02T07:48:12.731Z,1002.47
2018-01-02T07:49:21.336Z,1002.48
2018-01-02T07:50:29.930Z,1002.56
2018-01-02T07:51:38.534Z,1002.57
2018-01-02T07:52:47.138Z,1002.58
2018-01-02T07:53:55.769Z,1002.57
2018-01-02T07:55:04.340Z,1002.58
2018-01-02T07:56:12.955Z,1002.64
2018-01-02T07:57:21.545Z,1002.62
2018-01-02T07:58:30.145Z,1002.7
2018-01-02T07:59:38.753Z,1002.65
2018-01-02T08:00:47.348Z,1002.67
2018-01-02T08:01:55.942Z,1002.7
2018-01-02T08:03:04.554Z,1002.75
2018-01-02T08:04:13.155Z,1002.72
2018-01-02T08:05:21.747Z,1002.71
2018-01-02T08:06:30.357Z,1002.69
2018-01-02T08:07:38.959Z,1002.71
2018-01-02T08:08:47.558Z,1002.74
2018-01-02T08:09:56.161Z,1002.75
2018-01-02T08:11:05.031Z,1002.77
2018-01-02T08:12:13.627Z,1002.77
2018-01-02T08:13:22.232Z,1002.78
2018-01-02T08:14:30.826Z,1002.77
2018-01-02T08:15:39.437Z,1002.78
2018-01-02T08:16:48.044Z,1002.84
2018-01-02T08:17:56.634Z,1002.82
2018-01-02T08:19:05.241Z,1002.83
2018-01-02T08:20:13.849Z,1002.87
2018-01-02T08:21:22.443Z,1002.95
2018-01-02T08:22:31.308Z,1002.95
2018-01-02T08:23:39.924Z,1002.96
2018-01-02T08:24:48.516Z,1003.01
2018-01-02T08:25:57.112Z,1003.07
2018-01-02T08:27:05.713Z,1003.09
2018-01-02T08:28:14.320Z,1003.13
2018-01-02T08:29:22.926Z,1003.16
2018-01-02T08:30:31.518Z,1003.19
2018-01-02T08:31:40.121Z,1003.18
2018-01-02T08:32:48.733Z,1003.18
2018-01-02T08:33:57.326Z,1003.26
2018-01-02T08:35:05.925Z,1003.24
2018-01-02T08:36:14.537Z,1003.31
2018-01-02T08:37:23.132Z,1003.31
2018-01-02T08:38:31.726Z,1003.34
2018-01-02T08:39:40.342Z,1003.28
2018-01-02T08:40:48.995Z,1003.34
2018-01-02T08:41:57.547Z,1003.36
2018-01-02T08:43:06.144Z,1003.39
2018-01-02T08:44:14.745Z,1003.38
2018-01-02T08:45:23.360Z,1003.42
2018-01-02T08:46:31.954Z,1003.5
2018-01-02T08:47:40.548Z,1003.47
2018-01-02T08:48:49.160Z,1003.49
2018-01-02T08:49:57.761Z,1003.5
2018-01-02T08:51:06.389Z,1003.52
2018-01-02T08:52:14.964Z,1003.58
2018-01-02T08:53:23.570Z,1003.61
2018-01-02T08:54:32.155Z,1003.61
2018-01-02T08:55:40.770Z,1003.62
2018-01-02T08:56:49.366Z,1003.68
2018-01-02T08:57:57.975Z,1003.68
2018-01-02T08:59:06.580Z,1003.67
2018-01-02T09:00:15.172Z,1003.69
2018-01-02T09:01:23.787Z,1003.75
2018-01-02T09:02:32.391Z,1003.73
2018-01-02T09:03:41.250Z,1003.74
2018-01-02T09:04:49.856Z,1003.74
2018-01-02T09:05:58.465Z,1003.79
2018-01-02T09:07:07.055Z,1003.77
2018-01-02T09:08:15.662Z,1003.81
2018-01-02T09:09:24.533Z,1003.79
2018-01-02T09:10:33.129Z,1003.85
2018-01-02T09:11:41.732Z,1003.85
2018-01-02T09:12:50.328Z,1003.86
2018-01-02T09:13:58.936Z,1003.89
2018-01-02T09:15:07.551Z,1003.93
2018-01-02T09:16:16.133Z,1003.92
2018-01-02T09:17:24.738Z,1003.96
2018-01-02T09:18:33.351Z,1003.93
2018-01-02T09:19:41.946Z,1003.98
2018-01-02T09:20:50.548Z,1003.98
2018-01-02T09:21:59.161Z,1004.03
2018-01-02T09:23:07.762Z,1004.01
2018-01-02T09:24:16.358Z,1004.06
2018-01-02T09:25:24.961Z,1004.03
2018-01-02T09:26:33.568Z,1004.07
2018-01-02T09:27:42.175Z,1004.1
2018-01-02T09:28:50.783Z,1004.1
2018-01-02T09:29:59.386Z,1004.08
2018-01-02T09:31:08.260Z,1004.05
2018-01-02T09:32:16.860Z,1004.11
2018-01-02T09:33:25.538Z,1004.12
2018-01-02T09:34:34.204Z,1004.19
2018-01-02T09:35:43.006Z,1004.19
2018-01-02T09:36:51.607Z,1004.21
2018-01-02T09:38:00.212Z,1004.19
2018-01-02T09:39:08.816Z,1004.25
2018-01-02T09:40:17.417Z,1004.31
2018-01-02T09:41:26.014Z,1004.26
2018-01-02T09:42:34.610Z,1004.24
2018-01-02T09:43:43.223Z,1004.24
2018-01-02T09:44:51.828Z,1004.32
2018-01-02T09:46:00.416Z,1004.33
2018-01-02T09:47:09.034Z,1004.34
2018-01-02T09:48:17.635Z,1004.39
2018-01-02T09:49:26.232Z,1004.37
2018-01-02T09:50:34.843Z,1004.4
2018-01-02T09:51:43.451Z,1004.43
2018-01-02T09:52:52.045Z,1004.42
2018-01-02T09:54:00.650Z,1004.47
2018-01-02T09:55:09.261Z,1004.49
2018-01-02T09:56:17.859Z,1004.46
2018-01-02T09:57:26.458Z,1004.49
2018-01-02T09:58:35.074Z,1004.54
2018-01-02T09:59:43.668Z,1004.54
2018-01-02T10:00:52.265Z,1004.53
2018-01-02T10:02:00.880Z,1004.61
2018-01-02T10:03:09.479Z,1004.62
2018-01-02T10:04:18.584Z,1004.64
2018-01-02T10:05:27.199Z,1004.61
2018-01-02T10:06:35.805Z,1004.63
2018-01-02T10:07:44.396Z,1004.64
2018-01-02T10:08:53.007Z,1004.62
2018-01-02T10:10:01.609Z,1004.66
2018-01-02T10:11:10.221Z,1004.65
2018-01-02T10:12:18.822Z,1004.63
2018-01-02T10:13:27.415Z,1004.64
2018-01-02T10:14:36.031Z,1004.61
2018-01-02T10:15:44.634Z,1004.69
2018-01-02T10:16:53.485Z,1004.64
2018-01-02T10:18:02.096Z,1004.67
2018-01-02T10:19:10.706Z,1004.68
2018-01-02T10:20:19.296Z,1004.73
2018-01-02T10:21:27.900Z,1004.76
2018-01-02T10:22:36.515Z,1004.71
2018-01-02T10:23:45.108Z,1004.71
2018-01-02T10:24:53.718Z,1004.75
2018-01-02T10:26:02.308Z,1004.73
2018-01-02T10:27:10.915Z,1004.77
2018-01-02T10:28:19.526Z,1004.74
2018-01-02T10:29:28.115Z,1004.8
2018-01-02T10:30:36.719Z,1004.79
2018-01-02T10:31:45.593Z,1004.84
2018-01-02T10:32:54.187Z,1004.84
2018-01-02T10:34:02.790Z,1004.85
2018-01-02T10:35:11.404Z,1004.8
2018-01-02T10:36:20.004Z,1004.81
2018-01-02T10:37:28.600Z,1004.86
2018-01-02T10:38:37.467Z,1004.8
2018-01-02T10:39:46.084Z,1004.78
2018-01-02T10:40:54.697Z,1004.81
2018-01-02T10:42:03.559Z,1004.82
2018-01-02T10:43:12.147Z,1004.86
2018-01-02T10:44:21.022Z,1004.84
2018-01-02T10:45:29.617Z,1004.88
2018-01-02T10:46:38.214Z,1004.94
2018-01-02T10:47:46.827Z,1004.92
2018-01-02T10:48:55.427Z,1004.93
2018-01-02T10:50:04.021Z,1004.91
2018-01-02T10:51:12.897Z,1004.96
2018-01-02T10:52:21.502Z,1004.97
2018-01-02T10:53:30.163Z,1004.94
2018-01-02T10:54:38.771Z,1004.97
2018-01-02T10:55:47.368Z,1004.95
2018-01-02T10:56:55.983Z,1004.92
2018-01-02T10:58:04.582Z,1004.9
2018-01-02T10:59:13.175Z,1004.93
2018-01-02T11:00:21.789Z,1004.91
2018-01-02T11:01:30.390Z,1004.9
2018-01-02T11:02:38.982Z,1004.94
2018-01-02T11:03:47.594Z,1004.96
2018-01-02T11:04:56.200Z,1004.97
2018-01-02T11:06:04.795Z,1004.99
2018-01-02T11:07:13.397Z,1004.98
2018-01-02T11:08:21.994Z,1005.04
2018-01-02T11:09:30.611Z,1005.04
2018-01-02T11:10:39.220Z,1005.09
2018-01-02T11:11:48.065Z,1005.05
2018-01-02T11:12:56.676Z,1005.08
2018-01-02T11:14:05.287Z,1005.05
2018-01-02T11:15:13.880Z,1005.11
2018-01-02T11:16:22.485Z,1005.06
2018-01-02T11:17:31.102Z,1005.08
2018-01-02T11:18:39.695Z,1005.1
2018-01-02T11:19:48.298Z,1005.1
2018-01-02T11:20:56.909Z,1005.11
2018-01-02T11:22:05.509Z,1005.15
2018-01-02T11:23:14.118Z,1005.18
2018-01-02T11:24:22.707Z,1005.18
2018-01-02T11:25:31.308Z,1005.19
2018-01-02T11:26:39.926Z,1005.25
2018-01-02T11:27:48.521Z,1005.27
2018-01-02T11:28:57.131Z,1005.29
2018-01-02T11:30:05.805Z,1005.3
2018-01-02T11:31:14.399Z,1005.29
2018-01-02T11:32:22.993Z,1005.32
2018-01-02T11:33:31.609Z,1005.33
2018-01-02T11:34:40.470Z,1005.31
2018-01-02T11:35:49.078Z,1005.36
2018-01-02T11:36:57.950Z,1005.32
2018-01-02T11:38:06.547Z,1005.33
2018-01-02T11:39:15.163Z,1005.27
2018-01-02T11:40:23.760Z,1005.33
2018-01-02T11:41:32.357Z,1005.33
2018-01-02T11:42:40.973Z,1005.3
2018-01-02T11:43:49.574Z,1005.34
2018-01-02T11:44:58.168Z,1005.35
2018-01-02T11:46:06.781Z,1005.41
2018-01-02T11:47:15.389Z,1005.36
2018-01-02T11:48:23.979Z,1005.36
2018-01-02T11:49:32.589Z,1005.36
2018-01-02T11:50:41.198Z,1005.36
2018-01-02T11:51:50.165Z,1005.43
2018-01-02T11:52:58.772Z,1005.4
2018-01-02T11:54:07.442Z,1005.42
2018-01-02T11:55:16.031Z,1005.36
2018-01-02T11:56:24.644Z,1005.37
2018-01-02T11:57:33.257Z,1005.32
2018-01-02T11:58:41.858Z,1005.29
2018-01-02T11:59:50.461Z,1005.28
2018-01-02T12:00:59.336Z,1005.28
2018-01-02T12:02:07.938Z,1005.28
2018-01-02T12:03:16.534Z,1005.25
2018-01-02T12:04:25.436Z,1005.21
2018-01-02T12:05:34.041Z,1005.18
2018-01-02T12:06:42.643Z,1005.17
2018-01-02T12:07:51.242Z,1005.24
2018-01-02T12:08:59.839Z,1005.22
2018-01-02T12:10:08.454Z,1005.21
2018-01-02T12:11:17.050Z,1005.21
2018-01-02T12:12:26.048Z,1005.23
2018-01-02T12:13:34.734Z,1005.19
2018-01-02T12:14:43.349Z,1005.19
2018-01-02T12:15:52.055Z,1005.19
2018-01-02T12:17:00.615Z,1005.18
2018-01-02T12:18:09.230Z,1005.16
2018-01-02T12:19:17.825Z,1005.12
2018-01-02T12:20:26.428Z,1005.11
2018-01-02T12:21:35.024Z,1005.05
2018-01-02T12:22:45.328Z,1005
2018-01-02T12:23:54.056Z,1004.95
2018-01-02T12:25:02.760Z,1004.99
2018-01-02T12:26:11.889Z,1004.95
2018-01-02T12:27:20.501Z,1004.98
2018-01-02T12:28:29.465Z,1004.99
2018-01-02T12:29:38.092Z,1004.96
2018-01-02T12:30:47.020Z,1004.93
2018-01-02T12:31:55.875Z,1004.9
2018-01-02T12:33:04.478Z,1004.88
2018-01-02T12:34:13.090Z,1004.9
2018-01-02T12:35:21.687Z,1004.9
2018-01-02T12:36:30.296Z,1004.84
2018-01-02T12:37:38.887Z,1004.89
2018-01-02T12:38:47.493Z,1004.87
2018-01-02T12:39:56.117Z,1004.88
2018-01-02T12:41:04.970Z,1004.84
2018-01-02T12:42:13.575Z,1004.8
2018-01-02T12:43:22.189Z,1004.82
2018-01-02T12:44:30.785Z,1004.82
2018-01-02T12:45:39.381Z,1004.8
2018-01-02T12:46:48.254Z,1004.84
2018-01-02T12:47:56.854Z,1004.85
2018-01-02T12:49:05.708Z,1004.85
2018-01-02T12:50:14.315Z,1004.84
2018-01-02T12:51:22.918Z,1004.83
2018-01-02T12:52:31.536Z,1004.82
2018-01-02T12:53:40.130Z,1004.86
2018-01-02T12:54:48.728Z,1004.88
2018-01-02T12:55:57.597Z,1004.85
2018-01-02T12:57:06.201Z,1004.89
2018-01-02T12:58:14.792Z,1004.83
2018-01-02T12:59:23.408Z,1004.83
2018-01-02T13:00:32.011Z,1004.86
2018-01-02T13:01:40.604Z,1004.84
2018-01-02T13:02:49.215Z,1004.87
2018-01-02T13:03:57.821Z,1004.87
2018-01-02T13:05:06.429Z,1004.83
2018-01-02T13:06:15.026Z,1004.8
2018-01-02T13:07:23.619Z,1004.82
2018-01-02T13:08:32.496Z,1004.79
2018-01-02T13:09:41.107Z,1004.8
2018-01-02T13:10:49.960Z,1004.82
2018-01-02T13:11:58.576Z,1004.82
2018-01-02T13:13:07.184Z,1004.81
2018-01-02T13:14:16.032Z,1004.81
2018-01-02T13:15:24.638Z,1004.82
2018-01-02T13:16:33.248Z,1004.83
2018-01-02T13:17:41.843Z,1004.82
2018-01-02T13:18:50.439Z,1004.78
2018-01-02T13:19:59.039Z,1004.77
2018-01-02T13:21:07.649Z,1004.73
2018-01-02T13:22:16.263Z,1004.78
2018-01-02T13:23:24.851Z,1004.78
2018-01-02T13:24:33.457Z,1004.82
2018-01-02T13:25:42.067Z,1004.82
2018-01-02T13:26:50.662Z,1004.84
2018-01-02T13:27:59.265Z,1004.81
2018-01-02T13:29:07.911Z,1004.89
2018-01-02T13:30:16.506Z,1004.88
2018-01-02T13:31:25.129Z,1004.83
2018-01-02T13:32:33.754Z,1004.79
2018-01-02T13:33:42.352Z,1004.85
2018-01-02T13:34:50.963Z,1004.81
2018-01-02T13:35:59.552Z,1004.84
2018-01-02T13:37:08.182Z,1004.81
2018-01-02T13:38:16.798Z,1004.85
2018-01-02T13:39:25.396Z,1004.8
2018-01-02T13:40:34.026Z,1004.8
2018-01-02T13:41:42.659Z,1004.86
2018-01-02T13:42:51.574Z,1004.86
2018-01-02T13:44:00.171Z,1004.86
2018-01-02T13:45:08.790Z,1004.91
2018-01-02T13:46:17.405Z,1004.94
2018-01-02T13:47:26.000Z,1004.91
2018-01-02T13:48:34.621Z,1004.93
2018-01-02T13:49:43.252Z,1004.92
2018-01-02T13:50:51.848Z,1004.96
2018-01-02T13:52:00.455Z,1004.98
2018-01-02T13:53:09.077Z,1005
2018-01-02T13:54:17.694Z,1005.02
2018-01-02T13:55:26.296Z,1005.03
2018-01-02T13:56:34.916Z,1005.04
2018-01-02T13:57:43.513Z,1005.1
2018-01-02T13:58:52.113Z,1005.11
2018-01-02T14:00:00.732Z,1005.04
2018-01-02T14:01:09.338Z,1005.06
2018-01-02T14:02:17.930Z,1005.08